Time;durP1;ratioP1;P1;durP2;ratioP2;P2;SDS_P1;SDS_P2;PMS_P1;PMS_P2;Temp;Humidity;BMP_temperature;BMP_pressure;BME280_temperature;BME280_humidity;BME280_pressure;Samples;Min_cycle;Max_cycle;Signal;HPM_P1;HPM_P2
2023/09/13 00:01:47;;;;;;;15.25;5.60;;;;;;;22.87;44.39;98913.63;4373439;32;34323;-90
2023/09/13 00:04:15;;;;;;;15.75;5.97;;;;;;;22.89;44.46;98905.63;4370743;32;33408;-89
2023/09/13 00:06:43;;;;;;;17.20;5.53;;;;;;;22.82;44.60;98900.59;4361381;32;32124;-88
2023/09/13 00:09:10;;;;;;;13.27;5.12;;;;;;;22.82;44.78;98900.59;4373797;32;32872;-90
2023/09/13 00:11:38;;;;;;;13.70;5.55;;;;;;;22.78;45.13;98903.44;4375525;32;34650;-89
2023/09/13 00:14:06;;;;;;;18.73;6.18;;;;;;;22.70;45.79;98906.41;4373889;32;33276;-89
2023/09/13 00:16:33;;;;;;;17.10;5.57;;;;;;;22.64;45.75;98906.62;4375661;32;33025;-89
2023/09/13 00:19:03;;;;;;;16.92;6.43;;;;;;;22.63;45.80;98904.91;4375219;32;33756;-89
2023/09/13 00:21:31;;;;;;;17.35;6.03;;;;;;;22.50;46.00;98896.63;4373197;32;33781;-89
2023/09/13 00:23:59;;;;;;;15.50;5.50;;;;;;;22.52;45.93;98894.78;4374087;32;33410;-88
2023/09/13 00:26:26;;;;;;;14.07;5.60;;;;;;;22.55;46.00;98893.81;4373719;32;33532;-87
2023/09/13 00:28:54;;;;;;;18.55;6.40;;;;;;;22.51;46.19;98890.44;4373866;32;34223;-88
2023/09/13 00:31:22;;;;;;;16.08;6.55;;;;;;;22.48;46.03;98889.69;4374477;32;34656;-88
2023/09/13 00:33:50;;;;;;;16.62;6.00;;;;;;;22.47;46.17;98887.97;4361382;32;32824;-90
2023/09/13 00:36:18;;;;;;;14.63;6.60;;;;;;;22.45;46.10;98882.72;4360588;32;33043;-88
2023/09/13 00:38:45;;;;;;;15.93;5.90;;;;;;;22.44;45.97;98883.66;4360200;32;33085;-88
2023/09/13 00:41:13;;;;;;;16.20;5.85;;;;;;;22.45;46.23;98879.22;4348550;32;34057;-88
2023/09/13 00:43:40;;;;;;;21.17;5.87;;;;;;;22.43;46.09;98889.03;4374386;32;32751;-88
2023/09/13 00:46:09;;;;;;;18.35;5.90;;;;;;;22.45;45.96;98888.00;4361969;32;33655;-87
2023/09/13 00:48:36;;;;;;;14.25;5.28;;;;;;;22.37;46.24;98886.63;4374104;32;34047;-87
2023/09/13 00:51:04;;;;;;;17.95;5.40;;;;;;;22.33;46.07;98892.00;4361077;32;35209;-88
2023/09/13 00:53:33;;;;;;;16.50;5.43;;;;;;;22.40;45.36;98889.13;4348575;32;32774;-89
2023/09/13 00:56:00;;;;;;;17.70;6.45;;;;;;;22.37;45.84;98886.63;4361945;32;34579;-88
2023/09/13 00:58:29;;;;;;;14.57;5.55;;;;;;;22.39;45.53;98890.03;4373897;32;34071;-88
2023/09/13 01:00:57;;;;;;;20.77;5.62;;;;;;;22.34;45.70;98887.59;4359738;32;34058;-87
2023/09/13 01:03:25;;;;;;;17.87;6.82;;;;;;;22.40;45.58;98889.13;4374294;32;34151;-88
2023/09/13 01:05:54;;;;;;;20.20;5.97;;;;;;;22.33;45.79;98889.38;4338042;32;33217;-90
2023/09/13 01:08:22;;;;;;;15.68;5.82;;;;;;;22.28;46.31;98887.84;4359859;32;34040;-88
2023/09/13 01:10:50;;;;;;;15.93;6.45;;;;;;;22.24;46.56;98894.16;4361022;32;33803;-88
2023/09/13 01:13:17;;;;;;;17.87;6.22;;;;;;;22.20;46.50;98897.81;4373797;32;33468;-88
2023/09/13 01:16:14;;;;;;;15.48;5.80;;;;;;;22.15;46.87;98907.72;4358259;32;34565;-88
2023/09/13 01:18:59;;;;;;;23.48;6.78;;;;;;;22.22;46.84;98910.06;4358416;32;33885;-89
2023/09/13 01:21:34;;;;;;;17.20;6.20;;;;;;;22.25;46.69;98909.09;4359709;32;34842;-86
2023/09/13 01:24:54;;;;;;;13.50;5.35;;;;;;;22.03;46.87;98901.94;4374372;32;34281;-86
2023/09/13 01:27:32;;;;;;;13.57;5.55;;;;;;;22.12;46.66;98906.00;4347849;32;33245;-86
2023/09/13 01:30:00;;;;;;;15.43;5.72;;;;;;;22.06;46.91;98903.63;4360143;32;34244;-86
2023/09/13 01:32:28;;;;;;;19.62;5.80;;;;;;;22.04;47.04;98908.09;4372954;32;35063;-89
2023/09/13 01:34:56;;;;;;;18.45;5.95;;;;;;;22.19;47.10;98904.03;4361106;32;34585;-89
2023/09/13 01:37:23;;;;;;;17.08;5.75;;;;;;;22.15;47.16;98902.44;4360115;32;33217;-89
2023/09/13 01:39:51;;;;;;;14.90;5.97;;;;;;;22.12;47.12;98913.91;4372761;32;32639;-88
2023/09/13 01:42:19;;;;;;;17.73;5.28;;;;;;;22.05;47.16;98907.19;4359658;32;32728;-89
2023/09/13 01:44:47;;;;;;;15.07;5.78;;;;;;;22.01;47.36;98906.44;4359700;32;33386;-89
2023/09/13 01:47:15;;;;;;;16.55;6.00;;;;;;;22.08;47.42;98909.69;4356605;32;34592;-89
2023/09/13 01:49:43;;;;;;;14.82;5.85;;;;;;;22.02;47.52;98904.66;4359853;32;33336;-89
2023/09/13 01:52:11;;;;;;;14.55;5.60;;;;;;;22.05;47.67;98904.53;4360900;32;33523;-89
2023/09/13 01:54:39;;;;;;;15.63;5.97;;;;;;;22.09;47.50;98908.78;4375816;32;33279;-89
2023/09/13 01:57:06;;;;;;;13.62;6.18;;;;;;;22.17;47.23;98906.75;4362510;32;35239;-89
2023/09/13 01:59:34;;;;;;;16.00;5.95;;;;;;;22.04;47.56;98905.44;4376787;32;33769;-89
2023/09/13 02:02:02;;;;;;;14.87;6.22;;;;;;;21.99;47.58;98904.75;4341099;32;33335;-89
2023/09/13 02:04:33;;;;;;;15.88;6.20;;;;;;;21.96;47.72;98903.09;4362006;32;33574;-89
2023/09/13 02:07:01;;;;;;;16.20;5.70;;;;;;;22.00;47.80;98909.13;4361786;32;33928;-90
2023/09/13 02:09:29;;;;;;;18.55;6.45;;;;;;;22.04;47.73;98908.09;4369941;32;33306;-89
2023/09/13 02:11:57;;;;;;;19.77;6.40;;;;;;;21.97;47.95;98903.94;4376321;32;32251;-89
2023/09/13 02:14:24;;;;;;;17.52;6.55;;;;;;;21.96;47.89;98902.22;4374244;32;33465;-86
2023/09/13 02:16:58;;;;;;;16.98;6.82;;;;;;;21.94;47.83;98901.44;4373950;32;32517;-85
2023/09/13 02:19:26;;;;;;;15.48;6.12;;;;;;;21.89;48.03;98895.47;4362157;32;35066;-86
2023/09/13 02:21:53;;;;;;;15.48;6.43;;;;;;;21.91;48.10;98893.63;4375359;32;33687;-86
2023/09/13 02:24:21;;;;;;;18.60;6.65;;;;;;;21.84;48.59;98893.00;4361585;32;32318;-85
2023/09/13 02:26:54;;;;;;;19.37;7.47;;;;;;;21.83;48.63;98902.69;4376093;32;34605;-87
2023/09/13 02:29:22;;;;;;;12.45;5.57;;;;;;;21.89;48.53;98892.81;4375046;32;34167;-86
2023/09/13 02:31:50;;;;;;;13.25;6.00;;;;;;;21.84;48.58;98893.84;4346591;32;34483;-86
2023/09/13 02:34:19;;;;;;;15.68;6.62;;;;;;;21.85;48.79;98900.00;4348350;32;32674;-86
2023/09/13 02:36:47;;;;;;;17.15;6.35;;;;;;;21.67;49.27;98901.56;4375685;32;33752;-85
2023/09/13 02:39:38;;;;;;;16.37;7.12;;;;;;;21.63;49.50;98905.22;4374414;32;35410;-86
2023/09/13 02:42:06;;;;;;;19.15;6.43;;;;;;;21.74;49.29;98908.31;4349966;32;34121;-93
2023/09/13 02:44:35;;;;;;;19.87;7.07;;;;;;;21.64;49.53;98904.31;4375223;32;33007;-87
2023/09/13 02:47:02;;;;;;;19.80;7.53;;;;;;;21.68;49.26;98905.91;4362109;32;33613;-86
2023/09/13 02:49:32;;;;;;;17.92;7.75;;;;;;;21.60;49.41;98910.59;4370216;32;34838;-89
2023/09/13 02:52:00;;;;;;;12.50;6.35;;;;;;;21.52;50.00;98910.03;4361215;32;34303;-89
2023/09/13 02:54:27;;;;;;;20.25;7.18;;;;;;;21.54;49.96;98900.25;4374475;32;33428;-88
2023/09/13 02:56:55;;;;;;;13.73;6.18;;;;;;;21.56;49.85;98909.00;4350154;32;33916;-90
2023/09/13 02:59:24;;;;;;;14.27;6.97;;;;;;;21.51;50.08;98916.19;4374572;32;35014;-87
2023/09/13 03:01:51;;;;;;;15.27;5.95;;;;;;;21.40;49.95;98907.81;4359370;32;33196;-86
2023/09/13 03:04:19;;;;;;;13.88;6.10;;;;;;;21.33;49.87;98905.41;4372949;32;32087;-86
2023/09/13 03:06:47;;;;;;;16.87;6.28;;;;;;;21.33;49.96;98907.19;4360401;32;34576;-87
2023/09/13 03:09:15;;;;;;;15.90;6.05;;;;;;;21.27;49.88;98905.56;4373933;32;33707;-87
2023/09/13 03:11:42;;;;;;;11.40;5.95;;;;;;;21.24;50.10;98908.31;4360364;32;33348;-86
2023/09/13 03:14:10;;;;;;;19.00;6.55;;;;;;;21.43;49.35;98897.16;4373397;32;32711;-86
2023/09/13 03:16:38;;;;;;;18.75;6.55;;;;;;;21.25;49.78;98899.50;4360770;32;34267;-87
2023/09/13 03:19:06;;;;;;;17.08;6.15;;;;;;;21.23;49.81;98900.47;4360506;32;33703;-87
2023/09/13 03:21:34;;;;;;;16.65;6.57;;;;;;;21.14;49.81;98894.59;4373570;32;33418;-92
2023/09/13 03:24:04;;;;;;;16.48;6.90;;;;;;;21.10;49.97;98897.38;4360089;32;32660;-86
2023/09/13 03:26:33;;;;;;;12.68;6.82;;;;;;;21.13;50.18;98899.91;4361436;32;34898;-87
2023/09/13 03:29:01;;;;;;;17.27;7.03;;;;;;;21.10;50.23;98892.09;4375182;32;34050;-86
2023/09/13 03:31:31;;;;;;;16.87;7.32;;;;;;;20.99;50.71;98891.62;4361886;32;34444;-86
2023/09/13 03:33:59;;;;;;;15.88;6.18;;;;;;;20.95;50.66;98901.41;4360943;32;33845;-85
2023/09/13 03:36:28;;;;;;;14.63;6.93;;;;;;;20.90;50.71;98904.19;4376135;32;34517;-87
2023/09/13 03:38:56;;;;;;;13.88;7.37;;;;;;;20.93;50.92;98899.72;4360893;32;35382;-86
2023/09/13 03:41:25;;;;;;;17.62;7.28;;;;;;;20.97;50.77;98888.16;4375489;32;33925;-87
2023/09/13 03:43:53;;;;;;;15.82;7.70;;;;;;;21.01;50.82;98889.78;4374541;32;33206;-86
2023/09/13 03:46:20;;;;;;;18.08;6.82;;;;;;;21.02;50.80;98894.13;4360369;32;33253;-87
2023/09/13 03:48:49;;;;;;;15.45;7.70;;;;;;;20.93;51.23;98895.31;4361734;32;33742;-92
2023/09/13 03:51:17;;;;;;;19.73;7.22;;;;;;;20.92;51.21;98890.97;4374850;32;33979;-87
2023/09/13 03:53:48;;;;;;;19.75;7.45;;;;;;;20.99;51.05;98896.91;4360058;32;33254;-93
2023/09/13 03:56:15;;;;;;;18.50;6.93;;;;;;;20.94;51.29;98890.91;4348719;32;32388;-89
2023/09/13 03:58:43;;;;;;;16.83;7.70;;;;;;;20.91;51.40;98902.44;4348169;32;33403;-88
2023/09/13 04:01:11;;;;;;;16.58;7.25;;;;;;;20.87;51.77;98899.03;4375754;32;33795;-88
2023/09/13 04:03:39;;;;;;;15.85;7.40;;;;;;;20.97;51.47;98893.44;4360704;32;33230;-88
2023/09/13 04:06:07;;;;;;;18.40;8.15;;;;;;;20.96;51.56;98897.84;4358978;32;33940;-87
2023/09/13 04:08:34;;;;;;;17.23;7.93;;;;;;;20.88;51.83;98903.37;4361235;32;34470;-88
2023/09/13 04:11:02;;;;;;;14.87;7.10;;;;;;;20.88;51.79;98900.75;4374763;32;33832;-88
2023/09/13 04:13:30;;;;;;;19.37;7.43;;;;;;;20.94;51.58;98906.72;4372493;32;33496;-88
2023/09/13 04:16:06;;;;;;;19.10;7.43;;;;;;;20.84;51.92;98911.44;4359172;32;33598;-88
2023/09/13 04:18:35;;;;;;;18.58;7.15;;;;;;;20.81;52.10;98907.12;4360375;32;34898;-88
2023/09/13 04:21:02;;;;;;;18.15;7.50;;;;;;;20.86;51.82;98906.97;4361676;32;33192;-88
2023/09/13 04:23:30;;;;;;;16.52;7.75;;;;;;;20.86;52.13;98906.97;4374673;32;34713;-88
2023/09/13 04:25:58;;;;;;;15.13;7.07;;;;;;;20.71;52.17;98910.97;4345985;32;33402;-88
2023/09/13 04:28:27;;;;;;;15.73;7.37;;;;;;;20.83;51.86;98913.19;4360085;32;33709;-88
2023/09/13 04:30:57;;;;;;;16.25;7.97;;;;;;;20.78;52.06;98909.88;4371674;32;33405;-88
2023/09/13 04:33:48;;;;;;;18.67;7.70;;;;;;;20.81;52.39;98908.91;4360791;32;34177;-88
2023/09/13 04:36:16;;;;;;;14.25;7.78;;;;;;;20.82;52.35;98908.84;4375576;32;34525;-88
2023/09/13 04:38:46;;;;;;;15.35;7.60;;;;;;;20.72;52.34;98910.09;4375590;32;34125;-88
2023/09/13 04:41:14;;;;;;;19.02;7.65;;;;;;;20.79;52.65;98922.12;4360078;32;33160;-89
2023/09/13 04:43:42;;;;;;;19.67;7.55;;;;;;;20.85;52.63;98914.03;4374319;32;34457;-88
2023/09/13 04:46:11;;;;;;;16.80;6.82;;;;;;;20.94;52.25;98925.16;4374307;32;34529;-89
2023/09/13 04:48:39;;;;;;;13.27;7.20;;;;;;;21.03;52.11;98920.47;4374321;32;34037;-88
2023/09/13 04:51:09;;;;;;;13.73;6.87;;;;;;;21.12;52.09;98927.19;4371771;32;32936;-88
2023/09/13 04:53:37;;;;;;;17.73;6.90;;;;;;;21.44;51.72;98931.41;4344233;32;33528;-89
2023/09/13 04:56:05;;;;;;;16.55;7.12;;;;;;;21.76;51.19;98926.72;4360366;32;33536;-88
2023/09/13 04:58:34;;;;;;;12.93;6.72;;;;;;;21.99;50.55;98925.87;4368328;32;34159;-89
2023/09/13 05:01:05;;;;;;;13.60;6.30;;;;;;;22.22;49.65;98923.25;4360459;32;33902;-89
2023/09/13 05:03:33;;;;;;;19.37;7.18;;;;;;;22.49;48.91;98925.75;4360413;32;33502;-89
2023/09/13 05:06:00;;;;;;;16.48;6.78;;;;;;;22.61;48.70;98921.75;4348768;32;32661;-88
2023/09/13 05:08:28;;;;;;;16.60;6.62;;;;;;;22.74;48.33;98929.13;4361753;32;34946;-89
2023/09/13 05:10:56;;;;;;;12.20;6.62;;;;;;;22.90;48.91;98929.34;4375513;32;33706;-89
2023/09/13 05:13:23;;;;;;;15.10;6.57;;;;;;;23.01;48.68;98931.59;4374233;32;33065;-90
2023/09/13 05:15:51;;;;;;;20.00;7.80;;;;;;;23.11;48.79;98932.94;4361711;32;33951;-90
2023/09/13 05:18:19;;;;;;;18.55;7.68;;;;;;;23.23;47.96;98936.84;4361735;32;34593;-90
2023/09/13 05:20:46;;;;;;;19.42;7.93;;;;;;;23.27;48.63;98936.66;4361520;32;34263;-90
2023/09/13 05:23:14;;;;;;;20.60;7.43;;;;;;;23.37;48.85;98944.16;4361785;32;34322;-90
2023/09/13 05:41:18;;;;;;;14.82;6.43;;;;;;;23.73;48.31;98958.50;4376578;32;20391;-88
2023/09/13 05:43:46;;;;;;;16.48;6.65;;;;;;;23.68;47.51;98949.91;4363122;32;34454;-88
2023/09/13 05:46:15;;;;;;;14.38;6.50;;;;;;;23.62;47.63;98947.47;4362069;32;32783;-88
2023/09/13 05:48:43;;;;;;;17.80;7.12;;;;;;;23.45;47.41;98948.22;4376113;32;34558;-88
2023/09/13 05:51:11;;;;;;;17.10;6.93;;;;;;;23.41;47.74;98941.34;4362528;32;32973;-87
2023/09/13 05:53:38;;;;;;;14.35;7.22;;;;;;;23.69;47.97;98943.66;4362135;32;34553;-88
2023/09/13 05:56:10;;;;;;;19.77;6.80;;;;;;;23.16;50.63;98949.47;4362183;32;34259;-87
2023/09/13 05:58:43;;;;;;;18.65;7.95;;;;;;;23.42;50.52;98947.50;4349660;32;33225;-88
2023/09/13 06:01:11;;;;;;;19.02;7.30;;;;;;;23.55;49.71;98948.66;4362576;32;34173;-88
2023/09/13 06:03:39;;;;;;;17.05;8.02;;;;;;;23.59;49.07;98952.91;4361623;32;33905;-87
2023/09/13 06:06:06;;;;;;;17.02;7.32;;;;;;;23.58;49.48;98953.84;4349676;32;32747;-87
2023/09/13 06:08:35;;;;;;;15.10;6.40;;;;;;;23.29;49.91;98955.94;4376570;32;34660;-88
2023/09/13 06:11:02;;;;;;;15.52;7.00;;;;;;;23.38;50.14;98961.78;4362880;32;33740;-89
2023/09/13 06:13:30;;;;;;;16.08;7.47;;;;;;;23.45;49.92;98964.09;4362216;32;34644;-88
2023/09/13 06:15:57;;;;;;;18.67;7.32;;;;;;;23.71;49.34;98956.81;4361928;32;32561;-88
2023/09/13 06:18:25;;;;;;;17.42;6.97;;;;;;;23.85;49.12;98961.53;4375616;32;34384;-88
2023/09/13 06:20:54;;;;;;;16.98;7.60;;;;;;;23.93;49.46;98954.09;4361902;32;34048;-88
2023/09/13 06:23:39;;;;;;;17.15;7.57;;;;;;;23.63;50.03;98956.28;4349913;32;32902;-88
2023/09/13 06:26:08;;;;;;;18.95;7.43;;;;;;;24.06;48.39;98957.91;4349309;32;32809;-87
2023/09/13 06:28:35;;;;;;;17.23;7.57;;;;;;;24.03;49.88;98961.56;4375574;32;33822;-88
2023/09/13 06:31:03;;;;;;;17.08;7.85;;;;;;;24.03;49.03;98958.91;4375545;32;34829;-88
2023/09/13 06:33:32;;;;;;;18.77;7.00;;;;;;;23.89;49.05;98949.84;4362152;32;33972;-87
2023/09/13 06:36:03;;;;;;;19.95;8.23;;;;;;;23.90;48.98;98952.44;4375711;32;33567;-87
2023/09/13 06:38:31;;;;;;;14.55;6.87;;;;;;;24.13;48.38;98948.75;4363525;32;34535;-87
2023/09/13 06:40:59;;;;;;;18.05;7.65;;;;;;;24.34;48.55;98938.94;4377378;32;35130;-88
2023/09/13 06:43:28;;;;;;;26.50;8.48;;;;;;;24.31;48.62;98939.06;4377534;32;33398;-88
2023/09/13 06:46:01;;;;;;;20.95;7.47;;;;;;;24.22;48.69;98943.03;4364640;32;32734;-88
2023/09/13 06:48:33;;;;;;;16.37;7.43;;;;;;;24.28;48.82;98950.69;4352823;32;34448;-88
2023/09/13 06:51:03;;;;;;;15.73;7.05;;;;;;;24.23;48.93;98952.69;4377637;32;35088;-87
2023/09/13 06:53:34;;;;;;;17.90;8.50;;;;;;;24.39;50.02;98950.19;4377227;32;33796;-88
2023/09/13 06:56:03;;;;;;;17.80;7.72;;;;;;;24.52;49.47;98947.84;4377524;32;33368;-88
2023/09/13 06:58:35;;;;;;;17.87;7.22;;;;;;;24.27;50.09;98943.66;4352933;32;34419;-88
2023/09/13 07:01:05;;;;;;;19.08;7.75;;;;;;;24.72;48.98;98945.09;4363712;32;33830;-87
2023/09/13 07:03:53;;;;;;;18.65;8.38;;;;;;;24.17;50.27;98945.03;4377110;32;34065;-88
2023/09/13 07:06:27;;;;;;;17.70;8.32;;;;;;;24.55;49.65;98942.41;4376535;32;33147;-87
2023/09/13 07:08:55;;;;;;;17.58;7.30;;;;;;;24.48;50.04;98948.94;4376461;32;33959;-87
2023/09/13 07:11:23;;;;;;;17.17;8.40;;;;;;;24.57;50.54;98953.78;4363254;32;33800;-87
2023/09/13 07:13:51;;;;;;;15.40;7.50;;;;;;;24.66;50.30;98950.72;4376840;32;34275;-87
2023/09/13 07:16:18;;;;;;;19.80;8.95;;;;;;;24.69;50.60;98955.84;4377015;32;33126;-87
2023/09/13 07:18:46;;;;;;;20.20;8.93;;;;;;;24.88;50.54;98954.94;4376633;32;33551;-89
2023/09/13 07:21:14;;;;;;;22.08;8.07;;;;;;;25.04;49.59;98955.94;4350552;32;33930;-87
2023/09/13 07:23:41;;;;;;;18.73;7.78;;;;;;;25.14;48.92;98959.84;4376418;32;34073;-88
2023/09/13 07:26:09;;;;;;;17.23;7.87;;;;;;;25.37;47.52;98963.13;4362844;32;33163;-87
2023/09/13 07:28:37;;;;;;;19.33;8.15;;;;;;;25.30;48.16;98962.59;4363133;32;33874;-86
2023/09/13 07:31:08;;;;;;;17.33;7.95;;;;;;;25.53;47.74;98968.50;4376107;32;33494;-87
2023/09/13 07:33:36;;;;;;;16.23;7.80;;;;;;;25.69;47.60;98964.16;4362743;32;33928;-87
2023/09/13 07:36:04;;;;;;;21.08;7.87;;;;;;;26.05;46.11;98971.97;4362548;32;32531;-87
2023/09/13 07:38:32;;;;;;;17.95;7.10;;;;;;;26.05;47.66;98964.00;4375659;32;33842;-87
2023/09/13 07:41:00;;;;;;;22.23;9.15;;;;;;;26.36;47.00;98951.72;4359666;32;34606;-88
2023/09/13 07:43:27;;;;;;;16.85;8.60;;;;;;;26.57;44.36;98963.84;4347523;32;33420;-87
2023/09/13 07:45:55;;;;;;;14.75;8.85;;;;;;;26.54;43.73;98953.38;4359815;32;33168;-88
2023/09/13 07:48:23;;;;;;;16.75;9.00;;;;;;;26.64;43.63;98959.91;4359357;32;33637;-87
2023/09/13 07:50:50;;;;;;;24.23;9.38;;;;;;;26.61;43.36;98964.53;4359721;32;33889;-87
2023/09/13 07:53:18;;;;;;;20.58;9.88;;;;;;;27.05;44.28;98964.66;4359421;32;34025;-87
2023/09/13 07:55:46;;;;;;;17.33;8.70;;;;;;;26.93;43.52;98960.03;4359561;32;33961;-86
2023/09/13 07:58:13;;;;;;;18.00;8.70;;;;;;;27.19;43.18;98961.22;4361400;32;33376;-86
2023/09/13 08:00:43;;;;;;;17.33;8.48;;;;;;;27.34;43.03;98964.78;4360906;32;34923;-86
2023/09/13 08:03:11;;;;;;;15.90;7.25;;;;;;;27.37;43.31;98961.94;4359581;32;33657;-86
2023/09/13 08:05:39;;;;;;;17.05;8.57;;;;;;;27.48;43.42;98964.81;4360911;32;33609;-86
2023/09/13 08:08:07;;;;;;;16.80;7.85;;;;;;;27.83;41.48;98965.37;4359315;32;33842;-88
2023/09/13 08:10:35;;;;;;;18.10;7.60;;;;;;;27.62;41.68;98974.66;4347318;32;33983;-86
2023/09/13 08:13:02;;;;;;;18.23;8.48;;;;;;;27.75;41.59;98978.31;4360755;32;33998;-87
2023/09/13 08:15:30;;;;;;;18.77;8.68;;;;;;;27.46;41.58;98974.69;4360817;32;33492;-87
2023/09/13 08:18:13;;;;;;;15.23;8.57;;;;;;;27.63;41.39;98969.22;4360835;32;33637;-87
2023/09/13 08:20:41;;;;;;;19.60;8.52;;;;;;;27.45;41.33;98973.00;4360864;32;34665;-86
2023/09/13 08:23:09;;;;;;;19.58;8.95;;;;;;;27.47;41.11;98975.56;4359293;32;33415;-87
2023/09/13 08:25:37;;;;;;;24.17;8.93;;;;;;;27.83;39.81;98973.38;4360600;32;33969;-89
2023/09/13 08:28:05;;;;;;;18.45;9.55;;;;;;;27.89;41.18;98980.16;4360811;32;33842;-89
2023/09/13 08:30:33;;;;;;;17.08;8.57;;;;;;;28.04;39.39;98975.69;4360727;32;33924;-90
2023/09/13 08:33:01;;;;;;;20.40;9.50;;;;;;;27.99;40.60;98975.94;4347863;32;33540;-89
2023/09/13 08:35:29;;;;;;;20.35;8.82;;;;;;;28.03;40.73;98969.47;4359777;32;32929;-90
2023/09/13 08:37:57;;;;;;;21.67;9.00;;;;;;;28.47;39.43;98970.34;4359464;32;34106;-91
2023/09/13 08:40:24;;;;;;;16.25;8.65;;;;;;;28.19;39.88;98979.22;4347435;32;33787;-89
2023/09/13 08:42:53;;;;;;;18.15;8.23;;;;;;;28.04;38.88;98979.19;4360803;32;34261;-89
2023/09/13 08:45:21;;;;;;;22.95;8.27;;;;;;;28.41;39.09;98978.72;4347457;32;34093;-90
2023/09/13 08:47:51;;;;;;;21.10;8.05;;;;;;;28.52;39.59;98990.41;4360626;32;34863;-89
2023/09/13 08:50:28;;;;;;;14.65;7.60;;;;;;;28.73;38.08;98990.00;4359180;32;33680;-90
2023/09/13 08:53:02;;;;;;;19.20;7.78;;;;;;;28.57;37.63;98993.66;4359463;32;33919;-89
2023/09/13 08:55:33;;;;;;;18.80;7.40;;;;;;;28.56;38.23;98991.97;4359333;32;33495;-91
2023/09/13 08:58:02;;;;;;;16.55;7.85;;;;;;;28.16;38.89;98990.06;4360500;32;33975;-89
2023/09/13 09:00:39;;;;;;;16.65;7.60;;;;;;;28.44;38.33;98989.19;4359833;32;33806;-90
2023/09/13 09:03:09;;;;;;;17.98;7.18;;;;;;;28.71;37.49;98997.25;4359234;32;34140;-86
2023/09/13 09:05:37;;;;;;;19.35;7.40;;;;;;;28.29;37.53;98993.66;4359429;32;33829;-92
2023/09/13 09:08:06;;;;;;;18.12;7.43;;;;;;;28.53;38.44;98984.16;4359297;32;34052;-89
2023/09/13 09:10:35;;;;;;;15.30;7.22;;;;;;;28.60;37.91;98985.47;4360641;32;34280;-89
2023/09/13 09:13:04;;;;;;;17.42;7.05;;;;;;;28.84;38.22;98990.16;4359488;32;33863;-88
2023/09/13 09:15:34;;;;;;;21.65;8.95;;;;;;;28.95;37.93;98979.66;4359110;32;34207;-87
2023/09/13 09:18:02;;;;;;;13.18;7.60;;;;;;;29.02;37.30;98986.34;4359541;32;33997;-87
2023/09/13 09:20:30;;;;;;;18.02;8.60;;;;;;;28.97;37.17;98992.88;4346970;32;34849;-86
2023/09/13 09:22:58;;;;;;;17.00;8.02;;;;;;;28.72;38.77;98996.31;4359035;32;34818;-87
2023/09/13 09:25:26;;;;;;;18.95;7.32;;;;;;;28.87;38.33;98997.97;4359125;32;33282;-87
2023/09/13 09:27:53;;;;;;;15.00;7.50;;;;;;;28.99;37.77;98997.19;4358871;32;33817;-88
2023/09/13 09:30:29;;;;;;;19.42;8.23;;;;;;;28.71;38.03;98998.09;4359909;32;33842;-89
2023/09/13 09:33:05;;;;;;;20.52;7.82;;;;;;;28.69;37.81;98985.81;4358928;32;34703;-87
2023/09/13 09:35:32;;;;;;;;;;;;;;;28.90;38.23;98987.06;4359024;32;33326;-87
2023/09/13 09:38:00;;;;;;;21.80;7.50;;;;;;;29.37;37.78;98991.12;4360278;32;33935;-86
2023/09/13 09:40:36;;;;;;;16.87;8.18;;;;;;;29.25;37.68;98992.81;4369667;32;34629;-87
2023/09/13 09:43:04;;;;;;;15.40;8.40;;;;;;;29.54;36.89;98984.63;4361699;32;34273;-87
2023/09/13 09:45:31;;;;;;;17.23;8.15;;;;;;;29.66;36.34;98986.50;4361524;32;34435;-87
2023/09/13 09:47:59;;;;;;;15.02;7.30;;;;;;;29.56;37.69;98986.25;4361503;32;33219;-87
2023/09/13 09:50:31;;;;;;;18.08;8.52;;;;;;;29.59;37.36;98993.25;4361178;32;34168;-88
2023/09/13 09:52:58;;;;;;;15.38;8.00;;;;;;;29.78;36.22;98980.31;4358487;32;90595;-87
2023/09/13 09:55:26;;;;;;;17.42;8.52;;;;;;;29.90;36.85;98983.97;4374955;32;33726;-87
2023/09/13 09:57:54;;;;;;;13.05;8.32;;;;;;;29.61;36.39;98990.44;4361161;32;33920;-88
2023/09/13 10:00:22;;;;;;;16.00;7.93;;;;;;;29.96;35.96;98986.19;4361358;32;34182;-86
2023/09/13 10:02:50;;;;;;;13.18;7.50;;;;;;;29.95;36.12;98975.62;4361165;32;33912;-86
2023/09/13 10:05:18;;;;;;;18.08;8.30;;;;;;;29.58;35.67;98972.81;4374875;32;33366;-88
2023/09/13 10:07:51;;;;;;;15.63;8.45;;;;;;;29.94;35.79;98980.09;4361097;32;34214;-88
2023/09/13 10:10:34;;;;;;;14.13;8.32;;;;;;;29.81;35.93;98968.53;4374532;32;33639;-88
2023/09/13 10:13:03;;;;;;;15.82;8.73;;;;;;;29.86;36.35;98971.78;4375954;32;33793;-87
2023/09/13 10:15:32;;;;;;;16.77;7.82;;;;;;;29.73;36.47;98970.91;4363177;32;33498;-87
2023/09/13 10:18:01;;;;;;;16.52;8.43;;;;;;;29.93;36.83;98970.38;4362812;32;33771;-93
2023/09/13 10:20:30;;;;;;;17.17;7.97;;;;;;;29.98;34.39;98959.38;4362860;32;34136;-88
2023/09/13 10:23:00;;;;;;;16.67;7.75;;;;;;;29.98;37.98;98962.03;4363072;32;33954;-89
2023/09/13 10:25:32;;;;;;;13.90;7.95;;;;;;;30.25;35.44;98953.91;4376477;32;32988;-90
2023/09/13 10:28:01;;;;;;;14.90;8.35;;;;;;;30.49;35.30;98951.28;4362946;32;34799;-88
2023/09/13 10:30:30;;;;;;;15.10;8.63;;;;;;;30.44;35.84;98956.13;4362853;32;34980;-89
2023/09/13 10:32:58;;;;;;;16.15;8.95;;;;;;;29.96;36.09;98967.47;4363051;32;33923;-89
2023/09/13 10:35:28;;;;;;;11.68;7.80;;;;;;;30.17;36.03;98966.97;4363005;32;33545;-89
2023/09/13 10:38:03;;;;;;;11.45;7.87;;;;;;;30.32;35.42;98955.19;4363008;32;33888;-89
2023/09/13 10:40:39;;;;;;;22.13;8.82;;;;;;;30.67;34.95;98960.62;4362877;32;34042;-88
2023/09/13 10:43:08;;;;;;;15.27;8.13;;;;;;;30.72;38.20;98960.28;4362617;32;34247;-88
2023/09/13 10:45:40;;;;;;;13.40;8.43;;;;;;;30.81;34.96;98957.00;4377482;32;33339;-89
2023/09/13 10:48:08;;;;;;;14.25;8.25;;;;;;;31.16;33.97;98954.34;4350541;32;34668;-87
2023/09/13 10:50:37;;;;;;;13.85;7.97;;;;;;;30.76;33.72;98960.00;4363390;32;33727;-86
2023/09/13 10:53:05;;;;;;;12.37;8.27;;;;;;;30.94;33.92;98944.38;4376426;32;34269;-85
2023/09/13 10:55:33;;;;;;;16.05;7.78;;;;;;;30.95;36.19;98946.12;4376233;32;34222;-86
2023/09/13 10:58:03;;;;;;;12.55;7.53;;;;;;;31.28;33.15;98944.53;4362775;32;33042;-86
2023/09/13 11:00:34;;;;;;;16.08;7.70;;;;;;;31.21;33.11;98941.44;4376199;32;34863;-85
2023/09/13 11:03:03;;;;;;;9.45;6.87;;;;;;;31.36;34.39;98934.09;4376172;32;33701;-86
2023/09/13 11:05:32;;;;;;;11.90;6.60;;;;;;;31.78;29.98;98929.06;4362866;32;34189;-87
2023/09/13 11:07:59;;;;;;;10.98;5.93;;;;;;;31.75;30.71;98929.34;4362496;32;34773;-86
2023/09/13 11:10:31;;;;;;;10.52;6.43;;;;;;;31.93;29.72;98927.03;4362643;32;34221;-86
2023/09/13 11:13:12;;;;;;;12.63;6.05;;;;;;;31.82;30.24;98924.31;4362838;32;33466;-88
2023/09/13 11:15:53;;;;;;;8.82;5.72;;;;;;;32.05;30.42;98936.81;4376071;32;33116;-86
2023/09/13 11:18:25;;;;;;;13.10;6.22;;;;;;;32.12;29.56;98932.63;4362811;32;34042;-89
2023/09/13 11:20:53;;;;;;;8.63;6.03;;;;;;;32.03;28.99;98927.19;4362586;32;34930;-88
2023/09/13 11:23:21;;;;;;;8.65;6.00;;;;;;;31.77;28.15;98927.37;4362041;32;32686;-86
2023/09/13 11:25:54;;;;;;;12.37;6.87;;;;;;;31.93;30.92;98930.56;4363221;32;33403;-87
2023/09/13 11:28:36;;;;;;;11.35;6.53;;;;;;;32.01;28.62;98927.28;4350996;32;33881;-86
2023/09/13 11:31:06;;;;;;;8.80;6.50;;;;;;;32.07;28.61;98928.63;4375854;32;35174;-87
2023/09/13 11:33:51;;;;;;;11.57;6.53;;;;;;;32.18;28.47;98909.84;4362270;32;34684;-87
2023/09/13 11:36:20;;;;;;;7.68;5.55;;;;;;;32.03;28.71;98916.44;4362384;32;33701;-90
2023/09/13 11:38:56;;;;;;;8.02;6.12;;;;;;;32.07;28.70;98913.38;4362339;32;34172;-88
2023/09/13 11:41:23;;;;;;;8.90;5.75;;;;;;;32.02;27.56;98909.38;4362392;32;34105;-88
2023/09/13 11:43:52;;;;;;;10.48;6.20;;;;;;;32.03;27.79;98908.41;4362483;32;34615;-89
2023/09/13 11:46:23;;;;;;;7.72;6.18;;;;;;;31.77;28.71;98911.28;4362524;32;33066;-90
2023/09/13 11:48:52;;;;;;;13.65;5.95;;;;;;;31.89;29.10;98913.03;4362311;32;34610;-88
2023/09/13 11:51:30;;;;;;;8.93;5.95;;;;;;;31.90;28.19;98913.91;4375728;32;34618;-88
2023/09/13 11:54:19;;;;;;;8.10;5.35;;;;;;;32.20;29.10;98905.19;4354544;32;34187;-90